createdAt,value
2018-07-10T00:00:09.928Z,54.37
2018-07-10T00:03:22.030Z,54.16
2018-07-10T00:06:26.226Z,54.34
2018-07-10T00:10:25.808Z,54.27
2018-07-10T00:12:55.688Z,53.99
2018-07-10T00:15:25.478Z,54.33
2018-07-10T00:17:55.327Z,54.86
2018-07-10T00:20:25.355Z,54.99
2018-07-10T00:22:55.528Z,54.99
2018-07-10T00:25:25.357Z,55.69
2018-07-10T00:27:55.326Z,56.10
2018-07-10T00:30:25.359Z,56.96
2018-07-10T00:32:55.183Z,56.89
2018-07-10T00:35:25.189Z,57.63
2018-07-10T00:38:11.720Z,57.37
2018-07-10T00:40:41.639Z,57.24
2018-07-10T00:43:12.661Z,57.25
2018-07-10T00:45:42.545Z,57.52
2018-07-10T00:48:12.497Z,57.44
2018-07-10T00:50:42.377Z,57.46
2018-07-10T00:53:12.285Z,58.10
2018-07-10T00:55:42.263Z,58.12
2018-07-10T00:58:12.259Z,58.18
2018-07-10T01:00:42.091Z,58.01
2018-07-10T01:03:11.990Z,58.24
2018-07-10T01:05:41.921Z,58.67
2018-07-10T01:08:11.781Z,58.55
2018-07-10T01:10:41.959Z,58.99
2018-07-10T01:13:11.957Z,58.89
2018-07-10T01:15:41.875Z,58.89
2018-07-10T01:18:11.823Z,58.86
2018-07-10T01:20:41.641Z,58.95
2018-07-10T01:23:11.670Z,59.31
2018-07-10T01:25:41.602Z,58.84
2018-07-10T01:28:11.470Z,59.41
2018-07-10T01:30:41.438Z,58.81
2018-07-10T01:33:11.338Z,59.50
2018-07-10T01:35:41.417Z,59.26
2018-07-10T01:38:11.490Z,58.80
2018-07-10T01:40:42.127Z,58.52
2018-07-10T01:43:12.137Z,58.92
2018-07-10T01:45:41.954Z,58.71
2018-07-10T01:48:12.000Z,58.83
2018-07-10T01:50:41.919Z,58.66
2018-07-10T01:53:12.047Z,58.45
2018-07-10T01:55:41.971Z,58.79
2018-07-10T01:58:12.030Z,59.38
2018-07-10T02:00:45.212Z,59.67
2018-07-10T02:03:15.106Z,59.85
2018-07-10T02:05:45.008Z,59.35
2018-07-10T02:08:14.962Z,59.11
2018-07-10T02:10:45.187Z,59.39
2018-07-10T02:13:15.077Z,59.20
2018-07-10T02:15:44.938Z,59.66
2018-07-10T02:18:14.859Z,59.67
2018-07-10T02:20:59.275Z,59.15
2018-07-10T02:23:37.603Z,59.82
2018-07-10T02:26:26.226Z,59.35
2018-07-10T02:28:56.968Z,59.74
2018-07-10T02:31:28.023Z,59.72
2018-07-10T02:33:57.924Z,58.92
2018-07-10T02:36:27.871Z,57.99
2018-07-10T02:39:00.364Z,58.24
2018-07-10T02:41:30.399Z,58.81
2018-07-10T02:44:04.380Z,59.18
2018-07-10T02:46:37.158Z,59.26
2018-07-10T02:49:18.704Z,59.43
2018-07-10T02:51:58.006Z,59.40
2018-07-10T02:54:30.902Z,59.42
2018-07-10T02:57:00.861Z,59.84
2018-07-10T02:59:39.430Z,59.35
2018-07-10T03:02:27.005Z,59.47
2018-07-10T03:05:05.616Z,59.49
2018-07-10T03:07:37.757Z,60.61
2018-07-10T03:10:07.778Z,60.87
2018-07-10T03:12:38.052Z,62.02
2018-07-10T03:15:12.762Z,61.79
2018-07-10T03:17:42.722Z,61.53
2018-07-10T03:20:12.579Z,62.69
2018-07-10T03:22:42.565Z,62.95
2018-07-10T03:25:12.373Z,63.46
2018-07-10T03:27:42.343Z,64.31
2018-07-10T03:30:12.330Z,64.74
2018-07-10T03:32:42.190Z,64.85
2018-07-10T03:35:12.001Z,65.66
2018-07-10T03:37:41.970Z,66.64
2018-07-10T03:40:12.327Z,66.97
2018-07-10T03:42:42.336Z,66.78
2018-07-10T03:45:13.415Z,66.86
2018-07-10T03:47:44.062Z,66.03
2018-07-10T03:50:13.916Z,66.16
2018-07-10T03:52:48.003Z,65.86
2018-07-10T03:55:19.757Z,66.45
2018-07-10T03:57:54.375Z,66.15
2018-07-10T04:00:24.424Z,66.20
2018-07-10T04:02:54.572Z,67.91
2018-07-10T04:05:25.122Z,69.39
2018-07-10T04:07:57.532Z,69.16
2018-07-10T04:10:32.557Z,71.42
2018-07-10T04:13:14.484Z,70.66
2018-07-10T04:15:46.905Z,71.00
2018-07-10T04:18:20.276Z,73.00
2018-07-10T04:21:00.054Z,73.50
2018-07-10T04:23:37.400Z,73.24
2018-07-10T04:26:23.625Z,72.61
2018-07-10T04:29:27.436Z,75.85
2018-07-10T04:32:00.121Z,76.18
2018-07-10T04:34:33.055Z,76.37
2018-07-10T04:37:09.724Z,74.63
2018-07-10T04:39:42.069Z,74.31
2018-07-10T04:42:30.718Z,73.31
2018-07-10T04:45:10.562Z,71.47
2018-07-10T04:47:50.012Z,71.36
2018-07-10T04:50:27.024Z,70.94
2018-07-10T04:53:14.733Z,71.99
2018-07-10T04:55:45.074Z,71.27
2018-07-10T04:58:21.483Z,70.81
2018-07-10T05:00:58.456Z,71.62
2018-07-10T05:03:29.709Z,72.15
2018-07-10T05:06:03.539Z,72.88
2018-07-10T05:08:33.467Z,73.98
2018-07-10T05:11:03.564Z,74.09
2018-07-10T05:13:33.500Z,74.17
2018-07-10T05:16:06.609Z,74.34
2018-07-10T05:18:37.384Z,74.43
2018-07-10T05:21:13.542Z,73.23
2018-07-10T05:23:43.834Z,74.42
2018-07-10T05:26:16.484Z,75.77
2018-07-10T05:28:51.075Z,74.36
2018-07-10T05:31:21.344Z,74.94
2018-07-10T05:33:52.449Z,75.85
2018-07-10T05:36:24.436Z,77.01
2018-07-10T05:39:12.185Z,78.25
2018-07-10T05:41:46.753Z,78.36
2018-07-10T05:44:23.433Z,78.94
2018-07-10T05:46:56.893Z,79.67
2018-07-10T05:49:26.617Z,79.47
2018-07-10T05:51:58.293Z,80.70
2018-07-10T05:54:28.738Z,80.98
2018-07-10T05:56:58.869Z,82.02
2018-07-10T05:59:29.631Z,83.02
2018-07-10T06:01:59.039Z,83.51
2018-07-10T06:04:29.164Z,83.59
2018-07-10T06:07:06.194Z,84.36
2018-07-10T06:09:36.842Z,85.81
2018-07-10T06:12:08.007Z,86.53
2018-07-10T06:14:38.785Z,86.83
2018-07-10T06:17:09.850Z,87.76
2018-07-10T06:19:43.205Z,88.35
2018-07-10T06:22:13.312Z,88.39
2018-07-10T06:24:44.142Z,88.17
2018-07-10T06:27:16.183Z,87.81
2018-07-10T06:30:17.101Z,88.52
2018-07-10T06:33:03.996Z,88.38
2018-07-10T06:35:41.588Z,88.36
2018-07-10T06:38:16.773Z,88.96
2018-07-10T06:40:50.429Z,89.07
2018-07-10T06:43:31.785Z,88.50
2018-07-10T06:46:02.569Z,88.73
2018-07-10T06:48:42.335Z,88.76
2018-07-10T06:51:17.953Z,89.61
2018-07-10T06:53:52.314Z,89.34
2018-07-10T06:56:29.660Z,90.70
2018-07-10T06:59:00.085Z,90.74
2018-07-10T07:01:29.926Z,90.62
2018-07-10T07:04:01.786Z,90.78
2018-07-10T07:06:32.286Z,90.96
2018-07-10T07:09:02.163Z,91.30
2018-07-10T07:11:32.129Z,91.35
2018-07-10T07:14:02.160Z,91.21
2018-07-10T07:16:32.045Z,91.10
2018-07-10T07:19:02.445Z,91.15
2018-07-10T07:21:32.388Z,91.25
2018-07-10T07:24:03.083Z,91.52
2018-07-10T07:26:33.056Z,91.75
2018-07-10T07:29:02.985Z,91.86
2018-07-10T07:31:32.847Z,91.43
2018-07-10T07:34:03.618Z,92.04
2018-07-10T07:36:33.551Z,92.71
2018-07-10T07:39:05.398Z,92.39
2018-07-10T07:41:35.450Z,92.13
2018-07-10T07:44:05.447Z,91.76
2018-07-10T07:46:35.218Z,91.54
2018-07-10T07:49:06.152Z,91.75
2018-07-10T07:51:36.024Z,91.59
2018-07-10T07:54:06.692Z,91.14
2018-07-10T07:56:37.205Z,90.83
2018-07-10T07:59:07.161Z,90.75
2018-07-10T08:01:37.063Z,90.71
2018-07-10T08:04:07.711Z,90.66
2018-07-10T08:06:38.368Z,90.31
2018-07-10T08:09:09.116Z,90.44
2018-07-10T08:11:39.123Z,90.75
2018-07-10T08:14:10.763Z,89.62
2018-07-10T08:16:40.967Z,89.96
2018-07-10T08:19:11.513Z,89.66
2018-07-10T08:21:42.306Z,90.09
2018-07-10T08:24:12.506Z,90.04
2018-07-10T08:26:43.870Z,90.05
2018-07-10T08:29:14.118Z,90.90
2018-07-10T08:31:48.643Z,90.64
2018-07-10T08:34:18.759Z,91.20
2018-07-10T08:36:48.904Z,91.21
2018-07-10T08:39:20.158Z,90.32
2018-07-10T08:41:50.858Z,89.71
2018-07-10T08:44:23.382Z,90.38
2018-07-10T08:46:56.600Z,89.99
2018-07-10T08:49:36.680Z,90.18
2018-07-10T08:52:09.828Z,89.72
2018-07-10T08:54:39.960Z,89.27
2018-07-10T08:57:12.138Z,88.61
2018-07-10T08:59:42.445Z,88.23
2018-07-10T09:02:13.442Z,87.16
2018-07-10T09:04:44.679Z,87.23
2018-07-10T09:07:15.493Z,86.29
2018-07-10T09:09:45.750Z,84.51
2018-07-10T09:12:15.775Z,84.85
2018-07-10T09:14:46.161Z,84.03
2018-07-10T09:17:16.505Z,83.23
2018-07-10T09:19:47.267Z,83.06
2018-07-10T09:22:19.432Z,81.27
2018-07-10T09:24:56.870Z,80.20
2018-07-10T09:27:27.153Z,78.84
2018-07-10T09:29:57.593Z,76.49
2018-07-10T09:32:33.391Z,76.07
2018-07-10T09:35:04.008Z,73.53
2018-07-10T09:37:40.018Z,72.12
2018-07-10T09:40:18.418Z,71.31
2018-07-10T09:42:55.983Z,74.62
2018-07-10T09:45:35.135Z,77.56
2018-07-10T09:48:06.863Z,78.16
2018-07-10T09:50:36.804Z,77.29
2018-07-10T09:53:06.857Z,76.23
2018-07-10T09:55:36.890Z,76.14
2018-07-10T09:58:07.800Z,76.54
2018-07-10T10:00:43.417Z,76.42
2018-07-10T10:03:14.363Z,74.95
2018-07-10T10:05:45.395Z,74.96
2018-07-10T10:08:15.346Z,76.20
2018-07-10T10:10:45.192Z,76.89
2018-07-10T10:13:15.240Z,76.72
2018-07-10T10:15:45.603Z,75.96
2018-07-10T10:18:15.651Z,75.77
2018-07-10T10:20:45.636Z,76.19
2018-07-10T10:23:15.727Z,76.92
2018-07-10T10:25:53.654Z,77.27
2018-07-10T10:28:25.872Z,77.72
2018-07-10T10:30:55.803Z,78.34
2018-07-10T10:33:25.797Z,78.85
2018-07-10T10:35:56.068Z,78.60
2018-07-10T10:38:25.975Z,79.19
2018-07-10T10:40:58.071Z,79.77
2018-07-10T10:43:29.020Z,79.93
2018-07-10T10:45:59.137Z,80.63
2018-07-10T10:48:29.100Z,80.85
2018-07-10T10:51:00.438Z,81.07
2018-07-10T10:53:30.695Z,81.17
2018-07-10T10:56:00.892Z,81.57
2018-07-10T10:58:31.138Z,81.69
2018-07-10T11:01:02.749Z,82.13
2018-07-10T11:03:32.805Z,81.40
2018-07-10T11:06:03.879Z,81.98
2018-07-10T11:08:33.786Z,82.99
2018-07-10T11:11:04.571Z,83.00
2018-07-10T11:13:34.539Z,84.91
2018-07-10T11:16:04.591Z,84.14
2018-07-10T11:20:00.067Z,84.49
2018-07-10T11:22:30.314Z,84.80
2018-07-10T11:25:08.756Z,83.82
2018-07-10T11:28:15.280Z,83.00
2018-07-10T11:30:45.278Z,81.14
2018-07-10T11:33:15.353Z,80.30
2018-07-10T11:35:45.426Z,79.58
2018-07-10T11:38:15.484Z,79.69
2018-07-10T11:40:46.905Z,79.52
2018-07-10T11:43:16.713Z,79.41
2018-07-10T11:45:46.688Z,78.82
2018-07-10T11:48:16.770Z,79.11
2018-07-10T11:50:46.617Z,78.62
2018-07-10T11:53:16.566Z,77.63
2018-07-10T11:55:46.541Z,76.44
2018-07-10T11:58:16.598Z,77.29
2018-07-10T12:00:46.629Z,80.36
2018-07-10T12:03:16.474Z,80.11
2018-07-10T12:05:46.534Z,79.43
2018-07-10T12:08:17.429Z,77.90
2018-07-10T12:10:59.777Z,77.20
2018-07-10T12:13:30.785Z,77.65
2018-07-10T12:16:01.726Z,75.79
2018-07-10T12:18:32.582Z,75.75
2018-07-10T12:21:03.967Z,75.25
2018-07-10T12:23:34.068Z,76.84
2018-07-10T12:26:07.444Z,79.14
2018-07-10T12:28:37.405Z,77.73
2018-07-10T12:31:09.089Z,77.19
2018-07-10T12:33:39.324Z,78.10
2018-07-10T12:36:09.277Z,78.72
2018-07-10T12:38:39.299Z,78.34
2018-07-10T12:41:10.303Z,79.22
2018-07-10T12:43:40.334Z,80.01
2018-07-10T12:46:11.646Z,79.85
2018-07-10T12:48:41.898Z,78.62
2018-07-10T12:51:13.647Z,78.75
2018-07-10T12:53:45.154Z,80.84
2018-07-10T12:56:18.192Z,81.47
2018-07-10T12:58:48.340Z,80.64
2018-07-10T13:01:18.714Z,80.66
2018-07-10T13:03:50.552Z,80.43
2018-07-10T13:06:20.477Z,82.14
2018-07-10T13:08:50.407Z,83.46
2018-07-10T13:11:25.804Z,83.68
2018-07-10T13:13:56.492Z,82.55
2018-07-10T13:16:26.557Z,83.79
2018-07-10T13:18:56.468Z,84.14
2018-07-10T13:21:27.013Z,84.31
2018-07-10T13:23:57.062Z,84.09
2018-07-10T13:26:27.010Z,84.86
2018-07-10T13:28:57.100Z,85.19
2018-07-10T13:31:27.202Z,84.50
2018-07-10T13:33:57.170Z,85.10
2018-07-10T13:36:27.189Z,85.65
2018-07-10T13:38:57.369Z,84.54
2018-07-10T13:41:28.030Z,84.66
2018-07-10T13:43:58.094Z,83.81
2018-07-10T13:46:28.066Z,84.23
2018-07-10T13:48:58.138Z,84.67
2018-07-10T13:51:28.171Z,83.44
2018-07-10T13:53:58.134Z,82.32
2018-07-10T13:56:28.142Z,82.04
2018-07-10T13:58:58.399Z,83.50
2018-07-10T14:01:28.426Z,84.78
2018-07-10T14:03:58.701Z,86.48
2018-07-10T14:06:29.748Z,84.44
2018-07-10T14:09:03.651Z,83.33
2018-07-10T14:11:33.880Z,81.69
2018-07-10T14:14:04.234Z,80.95
2018-07-10T14:16:34.776Z,80.61
2018-07-10T14:19:05.275Z,79.63
2018-07-10T14:21:35.328Z,77.53
2018-07-10T14:24:05.412Z,76.93
2018-07-10T14:26:36.527Z,76.68
2018-07-10T14:29:06.617Z,75.71
2018-07-10T14:31:36.622Z,75.77
2018-07-10T14:34:06.948Z,76.04
2018-07-10T14:36:37.568Z,73.64
2018-07-10T14:39:07.618Z,74.77
2018-07-10T14:41:37.931Z,73.73
2018-07-10T14:44:08.128Z,73.51
2018-07-10T14:46:38.692Z,71.68
2018-07-10T14:49:09.671Z,72.17
2018-07-10T14:51:45.994Z,71.44
2018-07-10T14:54:15.877Z,68.71
2018-07-10T14:56:46.053Z,68.69
2018-07-10T14:59:21.973Z,69.57
2018-07-10T15:01:52.032Z,71.16
2018-07-10T15:04:22.394Z,72.27
2018-07-10T15:07:01.494Z,70.60
2018-07-10T15:09:34.909Z,68.19
2018-07-10T15:12:09.449Z,65.84
2018-07-10T15:15:04.341Z,69.11
2018-07-10T15:20:46.473Z,73.79
2018-07-10T15:23:29.262Z,72.52
2018-07-10T15:26:15.067Z,71.56
2018-07-10T15:29:00.491Z,72.04
2018-07-10T15:31:35.856Z,75.06
2018-07-10T15:34:10.191Z,76.01
2018-07-10T15:36:50.518Z,71.87
2018-07-10T15:39:26.792Z,71.91
2018-07-10T15:42:08.816Z,73.52
2018-07-10T15:44:54.340Z,75.55
2018-07-10T15:47:50.386Z,76.70
2018-07-10T15:50:38.276Z,73.69
2018-07-10T15:53:25.812Z,74.73
2018-07-10T15:56:13.820Z,72.22
2018-07-10T15:58:58.700Z,70.42
2018-07-10T16:01:57.668Z,68.41
2018-07-10T16:04:39.412Z,68.16
2018-07-10T16:07:23.494Z,72.24
2018-07-10T16:34:25.499Z,75.86
2018-07-10T16:36:56.249Z,76.59
2018-07-10T16:39:30.515Z,76.45
2018-07-10T16:42:09.115Z,75.97
2018-07-10T16:44:45.330Z,74.83
2018-07-10T16:47:44.393Z,75.55
2018-07-10T16:50:15.117Z,75.29
2018-07-10T16:52:55.778Z,74.88
2018-07-10T16:55:27.848Z,75.23
2018-07-10T16:58:02.828Z,75.60
2018-07-10T17:00:45.462Z,76.07
2018-07-10T17:03:22.806Z,77.71
2018-07-10T17:05:57.434Z,77.47
2018-07-10T17:08:42.286Z,76.67
2018-07-10T17:11:24.094Z,76.33
2018-07-10T17:13:55.761Z,76.00
2018-07-10T17:16:30.956Z,76.33
2018-07-10T17:19:03.316Z,77.05
2018-07-10T17:21:36.007Z,77.80
2018-07-10T17:24:08.516Z,77.03
2018-07-10T17:26:40.403Z,76.40
2018-07-10T17:29:12.997Z,77.69
2018-07-10T17:31:45.543Z,77.96
2018-07-10T17:34:17.489Z,78.38
2018-07-10T17:36:48.810Z,77.16
2018-07-10T17:39:22.850Z,77.01
2018-07-10T17:41:54.160Z,76.41
2018-07-10T17:44:26.831Z,76.16
2018-07-10T17:46:58.452Z,75.09
2018-07-10T17:49:30.961Z,75.51
2018-07-10T17:52:03.210Z,76.81
2018-07-10T17:54:35.429Z,77.55
2018-07-10T17:57:08.168Z,78.35
2018-07-10T17:59:41.489Z,79.39
2018-07-10T18:02:13.851Z,80.13
2018-07-10T18:04:46.500Z,80.00
2018-07-10T18:07:17.858Z,80.89
2018-07-10T18:09:50.128Z,81.75
2018-07-10T18:12:20.912Z,81.77
2018-07-10T18:14:50.995Z,81.25
2018-07-10T18:17:22.112Z,81.52
2018-07-10T18:19:52.829Z,82.11
2018-07-10T18:22:23.309Z,83.02
2018-07-10T18:24:54.043Z,83.64
2018-07-10T18:27:24.040Z,83.40
2018-07-10T18:29:53.911Z,83.37
2018-07-10T18:32:26.692Z,83.51
2018-07-10T18:34:58.803Z,84.13
2018-07-10T18:37:29.615Z,84.74
2018-07-10T18:40:00.989Z,84.16
2018-07-10T18:42:33.758Z,84.32
2018-07-10T18:45:05.597Z,84.72
2018-07-10T18:47:37.706Z,83.87
2018-07-10T18:50:08.955Z,84.19
2018-07-10T18:52:40.671Z,84.37
2018-07-10T18:55:11.348Z,84.06
2018-07-10T18:57:57.068Z,84.69
2018-07-10T19:00:52.460Z,86.02
2018-07-10T19:03:23.880Z,86.20
2018-07-10T19:05:58.517Z,86.71
2018-07-10T19:08:29.933Z,86.53
2018-07-10T19:11:01.969Z,86.58
2018-07-10T19:13:32.703Z,86.72
2018-07-10T19:16:04.182Z,86.72
2018-07-10T19:18:35.512Z,86.66
2018-07-10T19:21:37.365Z,87.18
2018-07-10T19:24:19.601Z,87.07
2018-07-10T19:26:53.134Z,88.09
2018-07-10T19:29:38.272Z,88.68
2018-07-10T19:32:11.959Z,88.52
2018-07-10T19:34:43.183Z,88.29
2018-07-10T19:37:15.763Z,88.00
2018-07-10T19:39:47.803Z,88.99
2018-07-10T19:42:18.872Z,88.57
2018-07-10T19:44:50.077Z,88.75
2018-07-10T19:47:28.387Z,88.56
2018-07-10T19:50:02.751Z,88.13
2018-07-10T19:52:44.747Z,88.13
2018-07-10T19:55:17.150Z,88.54
2018-07-10T19:59:11.506Z,88.13
2018-07-10T20:02:06.719Z,88.45
2018-07-10T20:08:20.296Z,88.71
2018-07-10T20:10:59.063Z,88.98
2018-07-10T20:13:48.544Z,88.53
2018-07-10T20:16:25.123Z,89.12
2018-07-10T20:19:18.901Z,89.20
2018-07-10T20:22:11.999Z,90.01
2018-07-10T20:25:52.959Z,89.95
2018-07-10T20:28:41.688Z,90.32
2018-07-10T20:31:20.519Z,91.09
2018-07-10T20:36:08.468Z,91.55
2018-07-10T20:38:39.010Z,91.53
2018-07-10T20:41:10.605Z,91.26
2018-07-10T20:43:46.810Z,91.32
2018-07-10T20:46:19.100Z,91.08
2018-07-10T20:48:58.984Z,90.86
2018-07-10T20:51:43.494Z,90.72
2018-07-10T20:54:33.784Z,90.35
2018-07-10T20:57:28.625Z,90.12
2018-07-10T21:00:15.871Z,90.12
2018-07-10T21:03:34.681Z,89.38
2018-07-10T21:06:25.631Z,90.12
2018-07-10T21:09:11.796Z,90.06
2018-07-10T21:11:59.849Z,89.85
2018-07-10T21:14:43.990Z,90.39
2018-07-10T21:17:17.186Z,90.47
2018-07-10T21:20:24.355Z,90.52
2018-07-10T21:23:15.104Z,90.54
2018-07-10T21:26:32.383Z,90.39
2018-07-10T21:30:15.662Z,90.41
2018-07-10T21:32:59.886Z,90.89
2018-07-10T21:35:44.164Z,90.67
2018-07-10T21:38:35.147Z,90.42
2018-07-10T21:43:20.366Z,90.87
2018-07-10T21:47:01.037Z,90.44
2018-07-10T21:49:51.063Z,90.42
2018-07-10T21:52:21.026Z,90.85
2018-07-10T21:54:51.407Z,91.01
2018-07-10T21:57:26.611Z,90.95
2018-07-10T22:00:00.394Z,90.71
2018-07-10T22:02:31.018Z,90.83
2018-07-10T22:05:01.403Z,90.36
2018-07-10T22:07:32.365Z,90.50
2018-07-10T22:10:08.276Z,91.44
2018-07-10T22:12:45.805Z,91.67
2018-07-10T22:15:16.012Z,91.73
2018-07-10T22:17:46.679Z,91.33
2018-07-10T22:20:17.563Z,92.12
2018-07-10T22:22:48.198Z,92.20
2018-07-10T22:25:18.307Z,92.49
2018-07-10T22:27:48.291Z,92.45
2018-07-10T22:30:23.481Z,92.41
2018-07-10T22:32:56.107Z,92.81
2018-07-10T22:35:26.105Z,92.39
2018-07-10T22:37:56.261Z,93.01
2018-07-10T22:40:26.313Z,92.45
2018-07-10T22:42:56.401Z,92.85
2018-07-10T22:45:27.476Z,93.36
2018-07-10T22:47:57.482Z,93.25
2018-07-10T22:50:28.041Z,93.10
2018-07-10T22:53:00.533Z,93.71
2018-07-10T22:55:33.471Z,94.05
2018-07-10T22:58:08.335Z,93.88
2018-07-10T23:00:39.579Z,94.57
2018-07-10T23:03:21.344Z,94.49
2018-07-10T23:05:52.257Z,94.17
2018-07-10T23:08:30.394Z,94.56
2018-07-10T23:11:01.903Z,94.04
2018-07-10T23:13:32.677Z,94.16
2018-07-10T23:16:02.611Z,93.67
2018-07-10T23:18:32.478Z,93.89
2018-07-10T23:21:02.534Z,93.70
2018-07-10T23:23:32.457Z,93.91
2018-07-10T23:26:02.470Z,94.26
2018-07-10T23:28:32.859Z,93.82
2018-07-10T23:31:04.622Z,94.24
2018-07-10T23:33:34.639Z,93.90
2018-07-10T23:36:06.369Z,93.77
2018-07-10T23:39:10.149Z,93.85
2018-07-10T23:41:53.796Z,93.66
2018-07-10T23:44:32.381Z,93.78
2018-07-10T23:47:14.258Z,94.10
2018-07-10T23:49:44.172Z,94.19
2018-07-10T23:53:29.918Z,94.73
2018-07-10T23:55:59.771Z,94.33
2018-07-10T23:58:29.640Z,94.95
